CheckWX is a tool to help pilots better visualize weather data.  It is not intended as a substitute for an official pre-flight weather briefing.

14:13:00 UTC

3AU METAR
Augusta Municipal Airport
Augusta, Kansas, USA
Current

18 mins ago

K3AU 251355Z AUTO 31004KT 7SM CLR 13/12 A2985 RMK AO2
Observed
Apr-25 @ 13:55 UTC
Wind
  • 310° at 4 KTS
Visibility
7 SM
Flight Rules
VFR
Cloud Levels
  • Clear skies
Temperature
13°C / 55°F
Dewpoint
12°C / 54°F
Humidity
94%
Altimeter
29.85" Hg
Pressure
1010.82 hPa
Previous

38 mins ago

K3AU 251335Z AUTO 00000KT 5SM BR CLR 11/11 A2985 RMK AO2
Observed
Apr-25 @ 13:35 UTC
Visibility
5 SM
Flight Rules
MVFR
Conditions
Mist
Cloud Levels
  • Clear skies
Temperature
11°C / 52°F
Dewpoint
11°C / 52°F
Humidity
100%
Altimeter
29.85" Hg
Pressure
1010.82 hPa
Previous

58 mins ago

K3AU 251315Z AUTO 00000KT 5SM BR CLR 11/11 A2985 RMK AO2
Observed
Apr-25 @ 13:15 UTC
Visibility
5 SM
Flight Rules
MVFR
Conditions
Mist
Cloud Levels
  • Clear skies
Temperature
11°C / 52°F
Dewpoint
11°C / 52°F
Humidity
100%
Altimeter
29.85" Hg
Pressure
1010.82 hPa